createdAt,value
2023-04-27T00:01:29.939Z,82.79
2023-04-27T00:06:34.643Z,82.65
2023-04-27T00:11:37.797Z,83.09
2023-04-27T00:16:41.175Z,83.23
2023-04-27T00:21:44.218Z,83.19
2023-04-27T00:26:47.223Z,83.24
2023-04-27T00:31:50.193Z,83.51
2023-04-27T00:36:53.236Z,83.58
2023-04-27T00:41:56.148Z,83.94
2023-04-27T00:46:59.355Z,84.19
2023-04-27T00:52:02.874Z,84.81
2023-04-27T00:57:05.994Z,85.04
2023-04-27T01:02:10.788Z,85.43
2023-04-27T01:07:13.734Z,85.88
2023-04-27T01:12:16.668Z,86.49
2023-04-27T01:17:19.540Z,86.57
2023-04-27T01:22:22.548Z,87.16
2023-04-27T01:27:25.993Z,87.40
2023-04-27T01:32:29.227Z,87.73
2023-04-27T01:37:32.395Z,88.08
2023-04-27T01:42:35.626Z,88.36
2023-04-27T01:47:38.657Z,88.57
2023-04-27T01:52:41.719Z,88.87
2023-04-27T01:57:44.721Z,89.26
2023-04-27T02:02:47.971Z,89.61
2023-04-27T02:07:51.361Z,89.57
2023-04-27T02:12:54.255Z,89.83
2023-04-27T02:17:58.644Z,90.03
2023-04-27T02:23:02.415Z,90.27
2023-04-27T02:28:05.421Z,90.30
2023-04-27T02:33:08.690Z,90.41
2023-04-27T02:38:11.861Z,90.61
2023-04-27T02:43:14.854Z,90.93
2023-04-27T02:48:17.862Z,91.11
2023-04-27T02:53:21.080Z,91.41
2023-04-27T02:58:24.280Z,91.65
2023-04-27T03:03:27.578Z,91.61
2023-04-27T03:08:30.702Z,92.16
2023-04-27T03:13:41.493Z,92.39
2023-04-27T03:18:44.594Z,93.08
2023-04-27T03:23:47.496Z,93.75
2023-04-27T03:28:50.620Z,95.20
2023-04-27T03:33:53.616Z,96.19
2023-04-27T03:38:56.932Z,95.17
2023-04-27T03:43:59.836Z,94.60
2023-04-27T03:49:03.048Z,94.66
2023-04-27T03:54:06.159Z,94.55
2023-04-27T03:59:09.061Z,92.22
2023-04-27T04:04:12.189Z,87.76
2023-04-27T04:09:15.733Z,82.97
2023-04-27T04:14:19.210Z,76.85
2023-04-27T04:19:22.349Z,71.29
2023-04-27T04:24:25.432Z,65.39
2023-04-27T04:29:28.942Z,61.06
2023-04-27T04:34:32.253Z,58.18
2023-04-27T04:39:35.257Z,54.62
2023-04-27T04:44:38.990Z,52.31
2023-04-27T04:49:42.092Z,49.76
2023-04-27T04:54:45.203Z,46.92
2023-04-27T04:59:48.319Z,45.95
2023-04-27T05:04:54.722Z,44.66
2023-04-27T05:09:57.908Z,44.35
2023-04-27T05:15:00.921Z,44.24
2023-04-27T05:20:05.081Z,43.71
2023-04-27T05:25:08.728Z,43.33
2023-04-27T05:30:13.051Z,42.74
2023-04-27T05:35:16.323Z,43.65
2023-04-27T05:40:19.636Z,45.81
2023-04-27T05:45:22.970Z,46.91
2023-04-27T05:50:26.263Z,46.45
2023-04-27T05:55:29.564Z,45.22
2023-04-27T06:00:32.692Z,43.37
2023-04-27T06:05:35.930Z,42.39
2023-04-27T06:10:39.623Z,41.95
2023-04-27T06:15:42.550Z,40.91
2023-04-27T06:20:47.244Z,40.53
2023-04-27T06:25:50.277Z,40.70
2023-04-27T06:30:54.484Z,40.49
2023-04-27T06:35:57.535Z,39.77
2023-04-27T06:41:00.730Z,39.79
2023-04-27T06:46:04.798Z,39.39
2023-04-27T06:51:08.086Z,38.68
2023-04-27T06:56:12.264Z,38.33
2023-04-27T07:01:15.240Z,38.18
2023-04-27T07:06:18.525Z,38.78
2023-04-27T07:11:21.763Z,40.41
2023-04-27T07:16:24.935Z,40.31
2023-04-27T07:21:28.888Z,42.31
2023-04-27T07:26:32.197Z,41.98
2023-04-27T07:31:35.894Z,40.02
2023-04-27T07:36:39.239Z,38.39
2023-04-27T07:41:42.247Z,37.92
2023-04-27T07:46:47.664Z,39.88
2023-04-27T07:51:50.708Z,41.80
2023-04-27T07:56:54.599Z,44.34
2023-04-27T08:02:07.314Z,47.87
2023-04-27T08:07:20.730Z,49.63
2023-04-27T08:12:23.929Z,50.24
2023-04-27T08:17:27.037Z,51.09
2023-04-27T08:22:30.144Z,51.25
2023-04-27T08:27:33.562Z,51.69
2023-04-27T08:32:36.811Z,52.47
2023-04-27T08:37:39.987Z,52.08
2023-04-27T08:42:57.639Z,53.50
2023-04-27T08:48:01.600Z,54.46
2023-04-27T08:53:04.572Z,55.21
2023-04-27T08:58:07.578Z,56.26
2023-04-27T09:03:24.545Z,55.12
2023-04-27T09:08:27.925Z,53.24
2023-04-27T09:13:42.102Z,52.56
2023-04-27T09:18:45.515Z,49.11
2023-04-27T09:23:48.409Z,49.78
2023-04-27T09:28:53.883Z,52.47
2023-04-27T09:33:56.881Z,54.62
2023-04-27T09:39:06.871Z,55.43
2023-04-27T09:44:10.062Z,51.77
2023-04-27T09:49:14.995Z,49.89
2023-04-27T09:54:18.813Z,49.93
2023-04-27T09:59:21.642Z,49.89
2023-04-27T10:04:30.732Z,50.54
2023-04-27T10:09:46.504Z,50.67
2023-04-27T10:14:51.756Z,49.80
2023-04-27T10:20:01.651Z,49.37
2023-04-27T10:25:14.060Z,49.18
2023-04-27T10:30:19.111Z,48.69
2023-04-27T10:35:32.685Z,49.58
2023-04-27T10:40:36.781Z,51.09
2023-04-27T10:45:41.507Z,49.90
2023-04-27T10:50:45.042Z,48.81
2023-04-27T10:55:48.081Z,48.88
2023-04-27T11:00:51.181Z,47.44
2023-04-27T11:06:02.825Z,47.58
2023-04-27T11:11:06.342Z,48.24
2023-04-27T11:16:09.644Z,48.21
2023-04-27T11:21:15.495Z,49.42
2023-04-27T11:26:26.721Z,49.07
2023-04-27T11:31:49.484Z,47.79
2023-04-27T11:42:16.877Z,47.67
2023-04-27T11:47:21.311Z,45.88
2023-04-27T11:52:36.485Z,44.77
2023-04-27T11:57:44.137Z,44.12
2023-04-27T12:02:47.333Z,43.81
2023-04-27T12:07:50.545Z,42.68
2023-04-27T12:12:53.755Z,43.54
2023-04-27T12:17:56.698Z,44.53
2023-04-27T12:22:59.669Z,44.94
2023-04-27T12:28:02.781Z,43.95
2023-04-27T12:33:11.143Z,44.16
2023-04-27T12:38:14.320Z,42.73
2023-04-27T12:43:17.429Z,44.94
2023-04-27T12:48:20.963Z,46.16
2023-04-27T12:53:24.059Z,45.51
2023-04-27T12:58:27.173Z,45.80
2023-04-27T13:03:31.414Z,43.62
2023-04-27T13:08:36.666Z,42.03
2023-04-27T13:13:39.759Z,44.73
2023-04-27T13:18:52.511Z,49.49
2023-04-27T13:23:59.576Z,53.14
2023-04-27T13:29:04.828Z,56.03
2023-04-27T13:34:08.070Z,58.35
2023-04-27T13:39:11.314Z,60.77
2023-04-27T13:44:14.542Z,62.03
2023-04-27T13:49:17.809Z,59.26
2023-04-27T13:54:21.702Z,57.19
2023-04-27T13:59:25.151Z,53.39
2023-04-27T14:04:28.484Z,53.21
2023-04-27T14:09:31.468Z,53.60
2023-04-27T14:14:36.230Z,54.25
2023-04-27T14:19:39.229Z,56.75
2023-04-27T14:24:42.232Z,58.68
2023-04-27T14:29:45.342Z,59.80
2023-04-27T14:34:48.577Z,61.66
2023-04-27T14:39:51.671Z,63.78
2023-04-27T14:44:54.675Z,64.78
2023-04-27T14:49:57.680Z,66.35
2023-04-27T14:55:00.984Z,65.85
2023-04-27T15:00:10.085Z,65.83
2023-04-27T15:05:13.216Z,66.26
2023-04-27T15:10:16.467Z,66.47
2023-04-27T15:15:19.472Z,66.97
2023-04-27T15:20:22.380Z,66.83
2023-04-27T15:25:25.281Z,65.38
2023-04-27T15:30:28.397Z,63.34
2023-04-27T15:35:31.815Z,60.99
2023-04-27T15:40:35.219Z,60.17
2023-04-27T15:45:38.442Z,60.21
2023-04-27T15:50:41.437Z,59.95
2023-04-27T15:55:44.649Z,60.17
2023-04-27T16:00:47.717Z,60.06
2023-04-27T16:05:51.473Z,61.03
2023-04-27T16:10:54.582Z,61.75
2023-04-27T16:15:57.596Z,62.42
2023-04-27T16:21:00.992Z,61.29
2023-04-27T16:26:04.011Z,60.66
2023-04-27T16:31:07.233Z,60.92
2023-04-27T16:36:11.456Z,61.02
2023-04-27T16:41:14.464Z,61.25
2023-04-27T16:46:17.849Z,60.82
2023-04-27T16:51:20.993Z,59.81
2023-04-27T16:56:28.785Z,58.86
2023-04-27T17:01:31.938Z,58.60
2023-04-27T17:06:35.058Z,57.97
2023-04-27T17:11:38.136Z,58.00
2023-04-27T17:16:41.246Z,58.49
2023-04-27T17:21:44.160Z,58.83
2023-04-27T17:26:48.486Z,59.43
2023-04-27T17:31:51.606Z,59.67
2023-04-27T17:36:54.737Z,60.28
2023-04-27T17:41:58.019Z,60.31
2023-04-27T17:47:01.080Z,60.74
2023-04-27T17:52:04.844Z,61.35
2023-04-27T17:57:09.323Z,61.89
2023-04-27T18:02:12.476Z,62.57
2023-04-27T18:07:18.793Z,63.18
2023-04-27T18:12:22.003Z,63.83
2023-04-27T18:17:26.230Z,64.48
2023-04-27T18:22:29.668Z,65.30
2023-04-27T18:27:33.093Z,66.09
2023-04-27T18:32:36.416Z,66.92
2023-04-27T18:37:39.715Z,67.44
2023-04-27T18:42:42.855Z,67.82
2023-04-27T18:47:46.267Z,68.30
2023-04-27T18:52:49.444Z,68.76
2023-04-27T18:57:53.060Z,69.42
2023-04-27T19:02:56.410Z,69.83
2023-04-27T19:07:59.793Z,70.33
2023-04-27T19:13:03.132Z,71.16
2023-04-27T19:18:11.516Z,71.39
2023-04-27T19:23:17.015Z,71.56
2023-04-27T19:28:20.108Z,71.69
2023-04-27T19:33:23.320Z,71.82
2023-04-27T19:38:26.730Z,72.06
2023-04-27T19:43:30.377Z,72.37
2023-04-27T19:48:34.193Z,73.01
2023-04-27T19:53:38.870Z,73.66
2023-04-27T19:58:42.593Z,73.58
2023-04-27T20:03:46.221Z,73.88
2023-04-27T20:08:49.691Z,74.02
2023-04-27T20:13:53.674Z,74.20
2023-04-27T20:18:58.007Z,74.74
2023-04-27T20:24:01.709Z,75.20
2023-04-27T20:29:06.536Z,75.50
2023-04-27T20:34:10.145Z,76.08
2023-04-27T20:39:13.358Z,76.65
2023-04-27T20:44:18.362Z,77.37
2023-04-27T20:49:32.021Z,77.98
2023-04-27T20:54:38.223Z,78.66
2023-04-27T20:59:41.885Z,79.06
2023-04-27T21:04:45.428Z,80.00
2023-04-27T21:09:48.935Z,80.68
2023-04-27T21:14:52.195Z,81.21
2023-04-27T21:19:58.223Z,81.68
2023-04-27T21:25:01.393Z,82.22
2023-04-27T21:30:05.313Z,81.90
2023-04-27T21:35:09.287Z,82.11
2023-04-27T21:40:12.885Z,82.38
2023-04-27T21:45:16.525Z,83.65
2023-04-27T21:50:20.209Z,84.91
2023-04-27T21:55:23.560Z,85.95
2023-04-27T22:00:27.193Z,86.76
2023-04-27T22:05:33.774Z,87.48
2023-04-27T22:10:37.827Z,87.87
2023-04-27T22:15:41.416Z,88.62
2023-04-27T22:20:44.928Z,89.13
2023-04-27T22:25:48.033Z,90.08
2023-04-27T22:30:51.555Z,90.85
2023-04-27T22:35:54.973Z,91.66
2023-04-27T22:40:58.401Z,91.99
2023-04-27T22:46:01.665Z,92.22
2023-04-27T22:51:09.822Z,93.24
2023-04-27T22:56:13.379Z,93.06
2023-04-27T23:01:16.854Z,93.39
2023-04-27T23:06:19.974Z,93.49
2023-04-27T23:11:24.055Z,94.25
2023-04-27T23:16:27.136Z,95.08
2023-04-27T23:21:30.213Z,94.63
2023-04-27T23:26:33.326Z,94.48
2023-04-27T23:31:36.582Z,95.47
2023-04-27T23:36:40.160Z,95.86
2023-04-27T23:41:43.161Z,96.46
2023-04-27T23:46:46.270Z,97.13
2023-04-27T23:51:50.197Z,97.49
2023-04-27T23:56:53.333Z,97.87
